Startpagina
METAR-TAF:

METAR-TAF

Vliegvelden :

Hagåtña, Guam, Verenigde Staten

breedte: 13-29N, lengte: 144-48E, hoogte: 91 m

Actueel weer

Dit bericht is 28 minuten geleden gemaakt, om 01:54 UTC
Wind 10 kt uit het oosten met uitschieters tot 21 kt
Temperatuur 31°C
Vochtigheid 63%
Druk 1012 hPa
Zicht: 16.1 km
Verspreide wolken op 3200 ft

METAR: PGUM 270154Z 10010G21KT 10SM SCT032 31/23 A2989 RMK AO2 SLP114 T03110233 $

Tijdstip: 12:22 (02:22 UTC)

Verwachting

Dit bericht is 3 uur en het 2 minuten geleden gemaakt, om 23:20 UTC
Verwachting geldig van 27 om 00 UTC tot 28 om 06 UTC
Wind 15 kt uit het oosten
Zicht: 10 km
Verspreide wolken op 2300 ft
Van 27 om 0800 UTC
Wind 9 kt uit het oosten
Zicht: 10 km
Verspreide wolken op 2100 ft
buien in de omgeving

TAF: PGUM 262320Z 2700/2806 09015KT P6SM SCT023 FM270800 09009KT P6SM VCSH SCT021

Waarnemingen en weersverwachtingen van meer dan 4000 vliegvelden (METAR en TAF).

De beschikbare stations zijn de gele en rode punten op de kaart.

Ga met uw muis naar het station om de naam te zien.

Klik dan om waarnemingen en weersverwachtingen te zien.

kaart wijzigen: klik op de groene knoppen met een zwart kruis om in te zoomen, op de groene knop met een streepje om uit te zoomen of op de groene pijlen voor aangrenzende kaarten.


METAR-TAF: